sensor_id;sensor_type;location;lat;lon;timestamp;P1;durP1;ratioP1;P2;durP2;ratioP2
64875;SDS011;51369;49.862;9.908;2022-12-07T00:01:40;19.40;;;10.77;;
64875;SDS011;51369;49.862;9.908;2022-12-07T00:04:08;21.90;;;11.18;;
64875;SDS011;51369;49.862;9.908;2022-12-07T00:06:37;20.55;;;11.02;;
64875;SDS011;51369;49.862;9.908;2022-12-07T00:09:05;19.05;;;11.05;;
64875;SDS011;51369;49.862;9.908;2022-12-07T00:11:32;20.70;;;11.35;;
64875;SDS011;51369;49.862;9.908;2022-12-07T00:13:59;16.13;;;10.18;;
64875;SDS011;51369;49.862;9.908;2022-12-07T00:16:27;22.80;;;11.52;;
64875;SDS011;51369;49.862;9.908;2022-12-07T00:18:55;17.50;;;10.35;;
64875;SDS011;51369;49.862;9.908;2022-12-07T00:21:24;17.85;;;11.15;;
64875;SDS011;51369;49.862;9.908;2022-12-07T00:23:51;19.95;;;10.60;;
64875;SDS011;51369;49.862;9.908;2022-12-07T00:28:46;21.42;;;10.07;;
64875;SDS011;51369;49.862;9.908;2022-12-07T00:31:13;20.35;;;10.73;;
64875;SDS011;51369;49.862;9.908;2022-12-07T00:33:40;18.52;;;10.25;;
64875;SDS011;51369;49.862;9.908;2022-12-07T00:36:06;17.98;;;10.43;;
64875;SDS011;51369;49.862;9.908;2022-12-07T00:38:33;19.00;;;10.55;;
64875;SDS011;51369;49.862;9.908;2022-12-07T00:41:04;20.27;;;10.55;;
64875;SDS011;51369;49.862;9.908;2022-12-07T00:43:38;20.35;;;11.10;;
64875;SDS011;51369;49.862;9.908;2022-12-07T00:46:04;16.27;;;9.50;;
64875;SDS011;51369;49.862;9.908;2022-12-07T00:48:30;17.35;;;10.05;;
64875;SDS011;51369;49.862;9.908;2022-12-07T00:50:56;18.77;;;10.45;;
64875;SDS011;51369;49.862;9.908;2022-12-07T00:53:21;16.65;;;9.93;;
64875;SDS011;51369;49.862;9.908;2022-12-07T00:55:47;18.42;;;10.23;;
64875;SDS011;51369;49.862;9.908;2022-12-07T00:58:13;16.10;;;9.95;;
64875;SDS011;51369;49.862;9.908;2022-12-07T01:00:39;17.77;;;10.52;;
64875;SDS011;51369;49.862;9.908;2022-12-07T01:03:06;16.83;;;10.43;;
64875;SDS011;51369;49.862;9.908;2022-12-07T01:05:33;21.88;;;10.80;;
64875;SDS011;51369;49.862;9.908;2022-12-07T01:07:59;20.33;;;11.05;;
64875;SDS011;51369;49.862;9.908;2022-12-07T01:10:25;17.92;;;10.13;;
64875;SDS011;51369;49.862;9.908;2022-12-07T01:12:51;15.30;;;9.30;;
64875;SDS011;51369;49.862;9.908;2022-12-07T01:15:16;16.35;;;9.70;;
64875;SDS011;51369;49.862;9.908;2022-12-07T01:17:42;16.77;;;9.88;;
64875;SDS011;51369;49.862;9.908;2022-12-07T01:20:07;17.60;;;10.13;;
64875;SDS011;51369;49.862;9.908;2022-12-07T01:22:40;16.15;;;9.27;;
64875;SDS011;51369;49.862;9.908;2022-12-07T01:25:06;18.60;;;10.18;;
64875;SDS011;51369;49.862;9.908;2022-12-07T01:27:33;16.67;;;10.02;;
64875;SDS011;51369;49.862;9.908;2022-12-07T01:29:59;16.52;;;9.23;;
64875;SDS011;51369;49.862;9.908;2022-12-07T01:32:24;18.55;;;9.88;;
64875;SDS011;51369;49.862;9.908;2022-12-07T01:34:50;18.08;;;10.40;;
64875;SDS011;51369;49.862;9.908;2022-12-07T01:37:15;20.63;;;10.18;;
64875;SDS011;51369;49.862;9.908;2022-12-07T01:39:40;16.13;;;9.52;;
64875;SDS011;51369;49.862;9.908;2022-12-07T01:42:10;20.83;;;10.45;;
64875;SDS011;51369;49.862;9.908;2022-12-07T01:47:38;18.00;;;9.73;;
64875;SDS011;51369;49.862;9.908;2022-12-07T01:50:05;18.42;;;9.63;;
64875;SDS011;51369;49.862;9.908;2022-12-07T01:52:31;20.77;;;10.60;;
64875;SDS011;51369;49.862;9.908;2022-12-07T01:55:01;18.27;;;10.18;;
64875;SDS011;51369;49.862;9.908;2022-12-07T01:57:30;20.25;;;10.93;;
64875;SDS011;51369;49.862;9.908;2022-12-07T01:59:57;23.40;;;11.50;;
64875;SDS011;51369;49.862;9.908;2022-12-07T02:02:38;20.25;;;10.70;;
64875;SDS011;51369;49.862;9.908;2022-12-07T02:05:08;22.17;;;11.07;;
64875;SDS011;51369;49.862;9.908;2022-12-07T02:07:35;20.25;;;10.57;;
64875;SDS011;51369;49.862;9.908;2022-12-07T02:10:15;23.98;;;12.23;;
64875;SDS011;51369;49.862;9.908;2022-12-07T02:12:43;21.55;;;11.65;;
64875;SDS011;51369;49.862;9.908;2022-12-07T02:15:11;21.30;;;11.32;;
64875;SDS011;51369;49.862;9.908;2022-12-07T02:29:11;20.58;;;11.95;;
64875;SDS011;51369;49.862;9.908;2022-12-07T02:31:40;25.77;;;12.90;;
64875;SDS011;51369;49.862;9.908;2022-12-07T02:34:27;24.63;;;12.63;;
64875;SDS011;51369;49.862;9.908;2022-12-07T02:37:37;22.75;;;12.05;;
64875;SDS011;51369;49.862;9.908;2022-12-07T02:43:00;24.52;;;12.27;;
64875;SDS011;51369;49.862;9.908;2022-12-07T02:45:31;24.80;;;12.77;;
64875;SDS011;51369;49.862;9.908;2022-12-07T02:47:59;26.65;;;13.60;;
64875;SDS011;51369;49.862;9.908;2022-12-07T02:50:27;23.55;;;11.43;;
64875;SDS011;51369;49.862;9.908;2022-12-07T02:52:53;25.40;;;13.13;;
64875;SDS011;51369;49.862;9.908;2022-12-07T02:55:20;31.83;;;13.43;;
64875;SDS011;51369;49.862;9.908;2022-12-07T03:01:42;27.60;;;13.27;;
64875;SDS011;51369;49.862;9.908;2022-12-07T03:07:21;26.35;;;13.63;;
64875;SDS011;51369;49.862;9.908;2022-12-07T03:10:01;22.50;;;12.10;;
64875;SDS011;51369;49.862;9.908;2022-12-07T03:12:37;25.05;;;12.05;;
64875;SDS011;51369;49.862;9.908;2022-12-07T03:15:22;28.55;;;13.95;;
64875;SDS011;51369;49.862;9.908;2022-12-07T03:17:54;26.52;;;12.35;;
64875;SDS011;51369;49.862;9.908;2022-12-07T03:20:23;23.73;;;11.60;;
64875;SDS011;51369;49.862;9.908;2022-12-07T03:22:50;27.73;;;13.32;;
64875;SDS011;51369;49.862;9.908;2022-12-07T03:25:19;27.65;;;13.77;;
64875;SDS011;51369;49.862;9.908;2022-12-07T03:27:48;26.52;;;12.50;;
64875;SDS011;51369;49.862;9.908;2022-12-07T03:30:22;23.02;;;12.20;;
64875;SDS011;51369;49.862;9.908;2022-12-07T03:32:56;25.35;;;12.32;;
64875;SDS011;51369;49.862;9.908;2022-12-07T03:35:45;26.27;;;13.68;;
64875;SDS011;51369;49.862;9.908;2022-12-07T03:38:22;26.27;;;12.95;;
64875;SDS011;51369;49.862;9.908;2022-12-07T03:41:00;20.90;;;10.35;;
64875;SDS011;51369;49.862;9.908;2022-12-07T03:43:45;27.38;;;11.73;;
64875;SDS011;51369;49.862;9.908;2022-12-07T03:46:15;26.40;;;12.85;;
64875;SDS011;51369;49.862;9.908;2022-12-07T03:51:21;25.33;;;12.77;;
64875;SDS011;51369;49.862;9.908;2022-12-07T03:53:58;27.15;;;13.45;;
64875;SDS011;51369;49.862;9.908;2022-12-07T03:56:43;27.33;;;13.52;;
64875;SDS011;51369;49.862;9.908;2022-12-07T03:59:11;23.38;;;12.90;;
64875;SDS011;51369;49.862;9.908;2022-12-07T04:01:37;31.90;;;13.55;;
64875;SDS011;51369;49.862;9.908;2022-12-07T04:04:02;26.80;;;13.65;;
64875;SDS011;51369;49.862;9.908;2022-12-07T04:06:28;27.58;;;13.15;;
64875;SDS011;51369;49.862;9.908;2022-12-07T04:08:53;24.48;;;12.90;;
64875;SDS011;51369;49.862;9.908;2022-12-07T04:11:18;29.08;;;12.82;;
64875;SDS011;51369;49.862;9.908;2022-12-07T04:13:44;24.77;;;12.05;;
64875;SDS011;51369;49.862;9.908;2022-12-07T04:16:28;22.25;;;11.30;;
64875;SDS011;51369;49.862;9.908;2022-12-07T04:18:53;23.48;;;11.43;;
64875;SDS011;51369;49.862;9.908;2022-12-07T04:21:19;23.73;;;11.15;;
64875;SDS011;51369;49.862;9.908;2022-12-07T04:23:44;24.88;;;11.35;;
64875;SDS011;51369;49.862;9.908;2022-12-07T04:26:09;19.65;;;11.10;;
64875;SDS011;51369;49.862;9.908;2022-12-07T04:28:35;22.63;;;10.23;;
64875;SDS011;51369;49.862;9.908;2022-12-07T04:31:00;17.55;;;9.85;;
64875;SDS011;51369;49.862;9.908;2022-12-07T04:33:25;23.27;;;11.32;;
64875;SDS011;51369;49.862;9.908;2022-12-07T04:35:51;18.17;;;10.68;;
64875;SDS011;51369;49.862;9.908;2022-12-07T04:38:16;21.30;;;10.35;;
64875;SDS011;51369;49.862;9.908;2022-12-07T04:40:41;19.92;;;9.90;;
64875;SDS011;51369;49.862;9.908;2022-12-07T04:43:07;17.45;;;9.68;;
64875;SDS011;51369;49.862;9.908;2022-12-07T04:45:32;18.40;;;9.77;;
64875;SDS011;51369;49.862;9.908;2022-12-07T04:47:57;19.50;;;10.15;;
64875;SDS011;51369;49.862;9.908;2022-12-07T04:50:23;18.70;;;8.55;;
64875;SDS011;51369;49.862;9.908;2022-12-07T04:52:48;12.77;;;7.75;;
64875;SDS011;51369;49.862;9.908;2022-12-07T04:55:14;17.48;;;8.55;;
64875;SDS011;51369;49.862;9.908;2022-12-07T04:57:39;16.13;;;8.60;;
64875;SDS011;51369;49.862;9.908;2022-12-07T05:00:04;13.07;;;7.63;;
64875;SDS011;51369;49.862;9.908;2022-12-07T05:02:30;14.30;;;7.28;;
64875;SDS011;51369;49.862;9.908;2022-12-07T05:04:56;11.80;;;6.93;;
64875;SDS011;51369;49.862;9.908;2022-12-07T05:07:21;16.48;;;8.35;;
64875;SDS011;51369;49.862;9.908;2022-12-07T05:09:46;13.05;;;7.35;;
64875;SDS011;51369;49.862;9.908;2022-12-07T05:12:12;12.20;;;6.88;;
64875;SDS011;51369;49.862;9.908;2022-12-07T05:14:37;13.18;;;7.57;;
64875;SDS011;51369;49.862;9.908;2022-12-07T05:17:02;12.65;;;7.22;;
64875;SDS011;51369;49.862;9.908;2022-12-07T05:19:29;13.05;;;7.50;;
64875;SDS011;51369;49.862;9.908;2022-12-07T05:21:54;12.73;;;7.43;;
64875;SDS011;51369;49.862;9.908;2022-12-07T05:24:19;14.32;;;7.70;;
64875;SDS011;51369;49.862;9.908;2022-12-07T05:26:45;14.35;;;7.32;;
64875;SDS011;51369;49.862;9.908;2022-12-07T05:29:15;13.13;;;8.10;;
64875;SDS011;51369;49.862;9.908;2022-12-07T05:31:41;13.55;;;7.32;;
64875;SDS011;51369;49.862;9.908;2022-12-07T05:34:07;15.68;;;7.75;;
64875;SDS011;51369;49.862;9.908;2022-12-07T05:36:32;15.85;;;8.98;;
64875;SDS011;51369;49.862;9.908;2022-12-07T05:38:58;13.73;;;8.68;;
64875;SDS011;51369;49.862;9.908;2022-12-07T05:41:24;15.93;;;9.35;;
64875;SDS011;51369;49.862;9.908;2022-12-07T05:44:08;22.25;;;10.32;;
64875;SDS011;51369;49.862;9.908;2022-12-07T05:46:33;18.05;;;9.32;;
64875;SDS011;51369;49.862;9.908;2022-12-07T05:48:59;15.48;;;8.35;;
64875;SDS011;51369;49.862;9.908;2022-12-07T05:51:24;18.10;;;8.85;;
64875;SDS011;51369;49.862;9.908;2022-12-07T05:53:50;15.13;;;7.93;;
64875;SDS011;51369;49.862;9.908;2022-12-07T05:56:15;14.63;;;8.15;;
64875;SDS011;51369;49.862;9.908;2022-12-07T05:58:41;16.98;;;8.60;;
64875;SDS011;51369;49.862;9.908;2022-12-07T06:01:25;15.02;;;8.63;;
64875;SDS011;51369;49.862;9.908;2022-12-07T06:03:50;17.55;;;8.40;;
64875;SDS011;51369;49.862;9.908;2022-12-07T06:06:16;20.67;;;8.75;;
64875;SDS011;51369;49.862;9.908;2022-12-07T06:08:41;15.32;;;8.35;;
64875;SDS011;51369;49.862;9.908;2022-12-07T06:11:07;20.10;;;9.77;;
64875;SDS011;51369;49.862;9.908;2022-12-07T06:13:50;16.20;;;8.93;;
64875;SDS011;51369;49.862;9.908;2022-12-07T06:16:16;20.85;;;9.38;;
64875;SDS011;51369;49.862;9.908;2022-12-07T06:18:41;17.48;;;9.35;;
64875;SDS011;51369;49.862;9.908;2022-12-07T06:21:06;19.90;;;10.50;;
64875;SDS011;51369;49.862;9.908;2022-12-07T06:23:32;19.63;;;10.10;;
64875;SDS011;51369;49.862;9.908;2022-12-07T06:25:57;22.30;;;11.07;;
64875;SDS011;51369;49.862;9.908;2022-12-07T06:28:22;21.20;;;10.43;;
64875;SDS011;51369;49.862;9.908;2022-12-07T06:30:56;21.38;;;11.45;;
64875;SDS011;51369;49.862;9.908;2022-12-07T06:33:22;21.73;;;10.77;;
64875;SDS011;51369;49.862;9.908;2022-12-07T06:35:48;19.38;;;10.55;;
64875;SDS011;51369;49.862;9.908;2022-12-07T06:38:13;23.58;;;10.55;;
64875;SDS011;51369;49.862;9.908;2022-12-07T06:40:38;19.52;;;10.50;;
64875;SDS011;51369;49.862;9.908;2022-12-07T06:43:04;18.08;;;9.20;;
64875;SDS011;51369;49.862;9.908;2022-12-07T06:45:29;20.02;;;10.65;;
64875;SDS011;51369;49.862;9.908;2022-12-07T06:47:55;18.92;;;10.13;;
64875;SDS011;51369;49.862;9.908;2022-12-07T06:50:20;22.00;;;10.93;;
64875;SDS011;51369;49.862;9.908;2022-12-07T06:52:45;25.00;;;11.10;;
64875;SDS011;51369;49.862;9.908;2022-12-07T06:55:10;21.38;;;10.68;;
64875;SDS011;51369;49.862;9.908;2022-12-07T06:57:36;18.38;;;10.20;;
64875;SDS011;51369;49.862;9.908;2022-12-07T07:00:02;20.90;;;10.68;;
64875;SDS011;51369;49.862;9.908;2022-12-07T07:02:28;17.63;;;9.10;;
64875;SDS011;51369;49.862;9.908;2022-12-07T07:04:53;19.88;;;11.10;;
64875;SDS011;51369;49.862;9.908;2022-12-07T07:07:18;20.63;;;10.63;;
64875;SDS011;51369;49.862;9.908;2022-12-07T07:09:44;18.67;;;10.60;;
64875;SDS011;51369;49.862;9.908;2022-12-07T07:12:09;21.35;;;11.30;;
64875;SDS011;51369;49.862;9.908;2022-12-07T07:14:34;22.90;;;10.65;;
64875;SDS011;51369;49.862;9.908;2022-12-07T07:17:00;19.63;;;10.75;;
64875;SDS011;51369;49.862;9.908;2022-12-07T07:19:26;22.98;;;11.23;;
64875;SDS011;51369;49.862;9.908;2022-12-07T07:21:51;26.20;;;11.35;;
64875;SDS011;51369;49.862;9.908;2022-12-07T07:24:16;18.40;;;9.32;;
64875;SDS011;51369;49.862;9.908;2022-12-07T07:26:42;20.40;;;9.80;;
64875;SDS011;51369;49.862;9.908;2022-12-07T07:29:07;18.02;;;9.75;;
64875;SDS011;51369;49.862;9.908;2022-12-07T07:31:32;21.05;;;10.57;;
64875;SDS011;51369;49.862;9.908;2022-12-07T07:34:00;18.90;;;10.57;;
64875;SDS011;51369;49.862;9.908;2022-12-07T07:36:26;20.83;;;10.48;;
64875;SDS011;51369;49.862;9.908;2022-12-07T07:38:51;20.08;;;9.95;;
64875;SDS011;51369;49.862;9.908;2022-12-07T07:41:16;21.13;;;10.40;;
64875;SDS011;51369;49.862;9.908;2022-12-07T07:43:42;20.35;;;9.65;;
64875;SDS011;51369;49.862;9.908;2022-12-07T07:46:07;20.90;;;10.43;;
64875;SDS011;51369;49.862;9.908;2022-12-07T07:48:32;23.52;;;10.95;;
64875;SDS011;51369;49.862;9.908;2022-12-07T07:50:58;22.80;;;11.85;;
64875;SDS011;51369;49.862;9.908;2022-12-07T07:53:23;22.42;;;11.70;;
64875;SDS011;51369;49.862;9.908;2022-12-07T07:55:54;22.55;;;10.57;;
64875;SDS011;51369;49.862;9.908;2022-12-07T07:58:20;19.43;;;10.07;;
64875;SDS011;51369;49.862;9.908;2022-12-07T08:00:46;23.58;;;11.27;;
64875;SDS011;51369;49.862;9.908;2022-12-07T08:03:11;19.70;;;10.98;;
64875;SDS011;51369;49.862;9.908;2022-12-07T08:05:37;23.90;;;11.18;;
64875;SDS011;51369;49.862;9.908;2022-12-07T08:08:02;21.73;;;11.35;;
64875;SDS011;51369;49.862;9.908;2022-12-07T08:10:28;21.88;;;11.50;;
64875;SDS011;51369;49.862;9.908;2022-12-07T08:12:53;20.88;;;11.18;;
64875;SDS011;51369;49.862;9.908;2022-12-07T08:15:44;18.70;;;10.70;;
64875;SDS011;51369;49.862;9.908;2022-12-07T08:18:11;23.95;;;10.95;;
64875;SDS011;51369;49.862;9.908;2022-12-07T08:20:37;21.05;;;11.73;;
64875;SDS011;51369;49.862;9.908;2022-12-07T08:23:03;22.92;;;10.52;;
64875;SDS011;51369;49.862;9.908;2022-12-07T08:25:31;18.77;;;11.02;;
64875;SDS011;51369;49.862;9.908;2022-12-07T08:27:57;21.20;;;10.80;;
64875;SDS011;51369;49.862;9.908;2022-12-07T08:30:23;21.88;;;12.35;;
64875;SDS011;51369;49.862;9.908;2022-12-07T08:32:49;23.92;;;11.32;;
64875;SDS011;51369;49.862;9.908;2022-12-07T08:35:15;21.58;;;11.38;;
64875;SDS011;51369;49.862;9.908;2022-12-07T08:37:41;21.63;;;12.13;;
64875;SDS011;51369;49.862;9.908;2022-12-07T08:40:07;22.27;;;11.63;;
64875;SDS011;51369;49.862;9.908;2022-12-07T08:42:34;21.13;;;11.32;;
64875;SDS011;51369;49.862;9.908;2022-12-07T08:45:06;21.95;;;11.55;;
64875;SDS011;51369;49.862;9.908;2022-12-07T08:47:33;20.35;;;11.45;;
64875;SDS011;51369;49.862;9.908;2022-12-07T08:50:02;23.38;;;13.32;;
64875;SDS011;51369;49.862;9.908;2022-12-07T08:52:30;26.30;;;13.25;;
64875;SDS011;51369;49.862;9.908;2022-12-07T08:54:57;24.08;;;13.60;;
64875;SDS011;51369;49.862;9.908;2022-12-07T08:57:24;28.30;;;13.07;;
64875;SDS011;51369;49.862;9.908;2022-12-07T08:59:50;26.95;;;12.07;;
64875;SDS011;51369;49.862;9.908;2022-12-07T09:02:15;24.50;;;12.43;;
64875;SDS011;51369;49.862;9.908;2022-12-07T09:04:41;24.92;;;12.43;;
64875;SDS011;51369;49.862;9.908;2022-12-07T09:07:06;23.42;;;12.95;;
64875;SDS011;51369;49.862;9.908;2022-12-07T09:09:32;23.80;;;12.35;;
64875;SDS011;51369;49.862;9.908;2022-12-07T09:11:57;24.70;;;13.80;;
64875;SDS011;51369;49.862;9.908;2022-12-07T09:14:23;23.85;;;12.35;;
64875;SDS011;51369;49.862;9.908;2022-12-07T09:16:48;21.80;;;12.32;;
64875;SDS011;51369;49.862;9.908;2022-12-07T09:19:13;29.45;;;12.52;;
64875;SDS011;51369;49.862;9.908;2022-12-07T09:21:39;23.48;;;12.50;;
64875;SDS011;51369;49.862;9.908;2022-12-07T09:24:04;24.48;;;12.55;;
64875;SDS011;51369;49.862;9.908;2022-12-07T09:26:30;21.80;;;12.68;;
64875;SDS011;51369;49.862;9.908;2022-12-07T09:28:55;27.00;;;12.98;;
64875;SDS011;51369;49.862;9.908;2022-12-07T09:31:21;25.70;;;12.35;;
64875;SDS011;51369;49.862;9.908;2022-12-07T09:33:46;22.63;;;13.73;;
64875;SDS011;51369;49.862;9.908;2022-12-07T09:36:12;22.83;;;12.23;;
64875;SDS011;51369;49.862;9.908;2022-12-07T09:38:37;19.90;;;11.00;;
64875;SDS011;51369;49.862;9.908;2022-12-07T09:41:06;21.88;;;11.65;;
64875;SDS011;51369;49.862;9.908;2022-12-07T09:43:33;26.10;;;13.57;;
64875;SDS011;51369;49.862;9.908;2022-12-07T09:46:00;20.05;;;11.18;;
64875;SDS011;51369;49.862;9.908;2022-12-07T09:48:34;20.63;;;10.85;;
64875;SDS011;51369;49.862;9.908;2022-12-07T09:51:02;17.83;;;10.75;;
64875;SDS011;51369;49.862;9.908;2022-12-07T09:53:55;20.55;;;11.27;;
64875;SDS011;51369;49.862;9.908;2022-12-07T09:56:22;20.70;;;11.10;;
64875;SDS011;51369;49.862;9.908;2022-12-07T09:58:49;19.60;;;11.52;;
64875;SDS011;51369;49.862;9.908;2022-12-07T10:01:17;19.33;;;11.00;;
64875;SDS011;51369;49.862;9.908;2022-12-07T10:03:55;23.90;;;12.13;;
64875;SDS011;51369;49.862;9.908;2022-12-07T10:06:44;20.40;;;10.52;;
64875;SDS011;51369;49.862;9.908;2022-12-07T10:09:11;21.38;;;10.82;;
64875;SDS011;51369;49.862;9.908;2022-12-07T10:14:23;13.15;;;8.50;;
64875;SDS011;51369;49.862;9.908;2022-12-07T10:16:48;17.67;;;9.93;;
64875;SDS011;51369;49.862;9.908;2022-12-07T10:19:32;19.60;;;9.68;;
64875;SDS011;51369;49.862;9.908;2022-12-07T10:22:09;21.08;;;10.38;;
64875;SDS011;51369;49.862;9.908;2022-12-07T10:24:37;22.73;;;10.60;;
64875;SDS011;51369;49.862;9.908;2022-12-07T10:27:15;16.10;;;9.80;;
64875;SDS011;51369;49.862;9.908;2022-12-07T10:29:54;21.35;;;10.40;;
64875;SDS011;51369;49.862;9.908;2022-12-07T10:34:45;14.05;;;8.57;;
64875;SDS011;51369;49.862;9.908;2022-12-07T10:42:20;19.10;;;9.88;;
64875;SDS011;51369;49.862;9.908;2022-12-07T11:01:34;16.80;;;9.30;;
64875;SDS011;51369;49.862;9.908;2022-12-07T11:06:51;13.82;;;8.77;;
64875;SDS011;51369;49.862;9.908;2022-12-07T11:12:23;14.63;;;9.55;;
64875;SDS011;51369;49.862;9.908;2022-12-07T11:17:45;14.23;;;9.10;;
64875;SDS011;51369;49.862;9.908;2022-12-07T11:28:47;14.02;;;8.77;;
64875;SDS011;51369;49.862;9.908;2022-12-07T11:33:57;17.05;;;8.68;;
64875;SDS011;51369;49.862;9.908;2022-12-07T11:39:36;13.75;;;7.88;;
64875;SDS011;51369;49.862;9.908;2022-12-07T11:42:11;12.80;;;8.50;;
64875;SDS011;51369;49.862;9.908;2022-12-07T11:44:50;15.63;;;9.18;;
64875;SDS011;51369;49.862;9.908;2022-12-07T11:47:25;13.70;;;8.15;;
64875;SDS011;51369;49.862;9.908;2022-12-07T11:49:58;13.55;;;8.13;;
64875;SDS011;51369;49.862;9.908;2022-12-07T11:52:51;13.43;;;8.05;;
64875;SDS011;51369;49.862;9.908;2022-12-07T11:55:39;13.90;;;8.43;;
64875;SDS011;51369;49.862;9.908;2022-12-07T12:03:43;13.30;;;8.10;;
64875;SDS011;51369;49.862;9.908;2022-12-07T12:06:12;15.68;;;7.53;;
64875;SDS011;51369;49.862;9.908;2022-12-07T12:09:02;19.75;;;10.35;;
64875;SDS011;51369;49.862;9.908;2022-12-07T12:24:58;12.65;;;7.93;;
64875;SDS011;51369;49.862;9.908;2022-12-07T12:27:25;14.57;;;7.50;;
64875;SDS011;51369;49.862;9.908;2022-12-07T12:30:04;13.85;;;7.72;;
64875;SDS011;51369;49.862;9.908;2022-12-07T12:32:41;14.40;;;8.32;;
64875;SDS011;51369;49.862;9.908;2022-12-07T12:40:58;18.38;;;8.02;;
64875;SDS011;51369;49.862;9.908;2022-12-07T12:43:47;11.73;;;7.15;;
64875;SDS011;51369;49.862;9.908;2022-12-07T12:48:55;11.88;;;7.15;;
64875;SDS011;51369;49.862;9.908;2022-12-07T12:51:39;14.98;;;7.28;;
64875;SDS011;51369;49.862;9.908;2022-12-07T12:54:26;12.32;;;7.10;;
64875;SDS011;51369;49.862;9.908;2022-12-07T13:05:16;11.20;;;5.25;;
64875;SDS011;51369;49.862;9.908;2022-12-07T13:13:05;13.70;;;6.82;;
64875;SDS011;51369;49.862;9.908;2022-12-07T13:20:53;13.63;;;7.60;;
64875;SDS011;51369;49.862;9.908;2022-12-07T13:31:55;11.95;;;7.13;;
64875;SDS011;51369;49.862;9.908;2022-12-07T13:34:31;14.52;;;8.18;;
64875;SDS011;51369;49.862;9.908;2022-12-07T13:36:57;14.60;;;7.00;;
64875;SDS011;51369;49.862;9.908;2022-12-07T13:39:25;11.95;;;7.22;;
64875;SDS011;51369;49.862;9.908;2022-12-07T13:41:55;14.85;;;7.97;;
64875;SDS011;51369;49.862;9.908;2022-12-07T13:44:22;11.88;;;6.97;;
64875;SDS011;51369;49.862;9.908;2022-12-07T13:46:51;12.73;;;7.07;;
64875;SDS011;51369;49.862;9.908;2022-12-07T13:49:23;11.20;;;6.65;;
64875;SDS011;51369;49.862;9.908;2022-12-07T13:51:50;14.70;;;6.97;;
64875;SDS011;51369;49.862;9.908;2022-12-07T13:54:17;10.82;;;6.75;;
64875;SDS011;51369;49.862;9.908;2022-12-07T13:56:43;13.13;;;6.45;;
64875;SDS011;51369;49.862;9.908;2022-12-07T13:59:30;13.95;;;6.63;;
64875;SDS011;51369;49.862;9.908;2022-12-07T14:01:58;13.57;;;5.97;;
64875;SDS011;51369;49.862;9.908;2022-12-07T14:06:56;28.23;;;10.20;;
64875;SDS011;51369;49.862;9.908;2022-12-07T14:09:23;12.68;;;7.07;;
64875;SDS011;51369;49.862;9.908;2022-12-07T14:11:50;15.27;;;7.32;;
64875;SDS011;51369;49.862;9.908;2022-12-07T14:14:19;12.05;;;6.40;;
64875;SDS011;51369;49.862;9.908;2022-12-07T14:16:56;10.02;;;6.68;;
64875;SDS011;51369;49.862;9.908;2022-12-07T14:22:22;6.15;;;4.68;;
64875;SDS011;51369;49.862;9.908;2022-12-07T14:27:31;4.20;;;3.45;;
64875;SDS011;51369;49.862;9.908;2022-12-07T14:30:00;5.22;;;3.33;;
64875;SDS011;51369;49.862;9.908;2022-12-07T14:32:27;7.07;;;3.80;;
64875;SDS011;51369;49.862;9.908;2022-12-07T14:34:58;4.15;;;3.42;;
64875;SDS011;51369;49.862;9.908;2022-12-07T14:37:24;10.60;;;4.25;;
64875;SDS011;51369;49.862;9.908;2022-12-07T14:39:50;7.38;;;4.50;;
64875;SDS011;51369;49.862;9.908;2022-12-07T14:42:16;7.32;;;4.65;;
64875;SDS011;51369;49.862;9.908;2022-12-07T14:44:41;7.97;;;4.30;;
64875;SDS011;51369;49.862;9.908;2022-12-07T14:47:09;8.98;;;5.13;;
64875;SDS011;51369;49.862;9.908;2022-12-07T14:49:35;13.75;;;5.07;;
64875;SDS011;51369;49.862;9.908;2022-12-07T14:52:01;13.68;;;5.97;;
64875;SDS011;51369;49.862;9.908;2022-12-07T14:54:26;12.52;;;6.78;;
64875;SDS011;51369;49.862;9.908;2022-12-07T14:56:55;10.55;;;6.20;;
64875;SDS011;51369;49.862;9.908;2022-12-07T14:59:20;7.90;;;5.20;;
64875;SDS011;51369;49.862;9.908;2022-12-07T15:01:45;9.27;;;5.57;;
64875;SDS011;51369;49.862;9.908;2022-12-07T15:04:11;14.60;;;6.75;;
64875;SDS011;51369;49.862;9.908;2022-12-07T15:06:36;14.50;;;7.30;;
64875;SDS011;51369;49.862;9.908;2022-12-07T15:09:01;9.13;;;5.72;;
64875;SDS011;51369;49.862;9.908;2022-12-07T15:11:27;11.07;;;6.35;;
64875;SDS011;51369;49.862;9.908;2022-12-07T15:13:53;9.43;;;5.43;;
64875;SDS011;51369;49.862;9.908;2022-12-07T15:16:33;10.50;;;4.88;;
64875;SDS011;51369;49.862;9.908;2022-12-07T15:19:00;8.23;;;4.78;;
64875;SDS011;51369;49.862;9.908;2022-12-07T15:21:25;8.07;;;4.95;;
64875;SDS011;51369;49.862;9.908;2022-12-07T15:23:50;10.40;;;5.10;;
64875;SDS011;51369;49.862;9.908;2022-12-07T15:26:16;10.63;;;4.72;;
64875;SDS011;51369;49.862;9.908;2022-12-07T15:28:42;29.60;;;14.70;;
64875;SDS011;51369;49.862;9.908;2022-12-07T15:31:11;32.67;;;16.25;;
64875;SDS011;51369;49.862;9.908;2022-12-07T15:33:37;31.70;;;16.00;;
64875;SDS011;51369;49.862;9.908;2022-12-07T15:36:02;18.45;;;7.13;;
64875;SDS011;51369;49.862;9.908;2022-12-07T15:38:28;16.73;;;6.50;;
64875;SDS011;51369;49.862;9.908;2022-12-07T15:40:55;17.10;;;8.43;;
64875;SDS011;51369;49.862;9.908;2022-12-07T15:43:20;14.20;;;6.70;;
64875;SDS011;51369;49.862;9.908;2022-12-07T15:46:04;12.70;;;7.85;;
64875;SDS011;51369;49.862;9.908;2022-12-07T15:48:29;11.98;;;6.75;;
64875;SDS011;51369;49.862;9.908;2022-12-07T15:51:04;12.55;;;6.70;;
64875;SDS011;51369;49.862;9.908;2022-12-07T15:53:31;13.32;;;7.28;;
64875;SDS011;51369;49.862;9.908;2022-12-07T15:55:57;13.98;;;8.10;;
64875;SDS011;51369;49.862;9.908;2022-12-07T15:58:22;11.90;;;6.97;;
64875;SDS011;51369;49.862;9.908;2022-12-07T16:00:47;12.77;;;7.30;;
64875;SDS011;51369;49.862;9.908;2022-12-07T16:03:13;14.30;;;8.07;;
64875;SDS011;51369;49.862;9.908;2022-12-07T16:05:39;15.88;;;8.07;;
64875;SDS011;51369;49.862;9.908;2022-12-07T16:08:04;13.25;;;7.25;;
64875;SDS011;51369;49.862;9.908;2022-12-07T16:10:30;14.23;;;7.55;;
64875;SDS011;51369;49.862;9.908;2022-12-07T16:12:55;12.68;;;6.50;;
64875;SDS011;51369;49.862;9.908;2022-12-07T16:15:20;8.77;;;4.70;;
64875;SDS011;51369;49.862;9.908;2022-12-07T16:17:46;11.80;;;6.93;;
64875;SDS011;51369;49.862;9.908;2022-12-07T16:20:11;18.50;;;9.13;;
64875;SDS011;51369;49.862;9.908;2022-12-07T16:22:36;14.15;;;6.07;;
64875;SDS011;51369;49.862;9.908;2022-12-07T16:25:02;18.55;;;9.05;;
64875;SDS011;51369;49.862;9.908;2022-12-07T16:27:27;9.85;;;3.83;;
64875;SDS011;51369;49.862;9.908;2022-12-07T16:29:53;4.22;;;2.65;;
64875;SDS011;51369;49.862;9.908;2022-12-07T16:32:18;10.38;;;3.72;;
64875;SDS011;51369;49.862;9.908;2022-12-07T16:34:43;14.85;;;7.80;;
64875;SDS011;51369;49.862;9.908;2022-12-07T16:37:09;9.57;;;5.63;;
64875;SDS011;51369;49.862;9.908;2022-12-07T16:39:34;5.78;;;3.50;;
64875;SDS011;51369;49.862;9.908;2022-12-07T16:42:00;5.60;;;2.95;;
64875;SDS011;51369;49.862;9.908;2022-12-07T16:44:25;6.68;;;2.60;;
64875;SDS011;51369;49.862;9.908;2022-12-07T16:46:51;4.65;;;2.63;;
64875;SDS011;51369;49.862;9.908;2022-12-07T16:49:16;5.55;;;2.20;;
64875;SDS011;51369;49.862;9.908;2022-12-07T16:51:43;4.47;;;2.33;;
64875;SDS011;51369;49.862;9.908;2022-12-07T16:54:11;9.07;;;2.70;;
64875;SDS011;51369;49.862;9.908;2022-12-07T16:56:37;2.80;;;2.13;;
64875;SDS011;51369;49.862;9.908;2022-12-07T16:59:03;4.68;;;2.63;;